sensor_id;sensor_type;location;lat;lon;timestamp;P1;durP1;ratioP1;P2;durP2;ratioP2
18732;SDS011;9495;51.210;2.934;2022-08-19T00:01:51;40.20;;;25.85;;
18732;SDS011;9495;51.210;2.934;2022-08-19T00:04:22;39.00;;;24.85;;
18732;SDS011;9495;51.210;2.934;2022-08-19T00:06:55;41.40;;;25.30;;
18732;SDS011;9495;51.210;2.934;2022-08-19T00:09:25;39.28;;;26.85;;
18732;SDS011;9495;51.210;2.934;2022-08-19T00:11:54;42.70;;;25.48;;
18732;SDS011;9495;51.210;2.934;2022-08-19T00:14:24;39.20;;;26.42;;
18732;SDS011;9495;51.210;2.934;2022-08-19T00:16:58;40.15;;;27.08;;
18732;SDS011;9495;51.210;2.934;2022-08-19T00:19:27;45.88;;;26.80;;
18732;SDS011;9495;51.210;2.934;2022-08-19T00:21:55;39.47;;;26.30;;
18732;SDS011;9495;51.210;2.934;2022-08-19T00:24:26;37.80;;;26.20;;
18732;SDS011;9495;51.210;2.934;2022-08-19T00:26:55;40.33;;;26.65;;
18732;SDS011;9495;51.210;2.934;2022-08-19T00:29:44;38.70;;;25.85;;
18732;SDS011;9495;51.210;2.934;2022-08-19T00:32:17;39.30;;;25.77;;
18732;SDS011;9495;51.210;2.934;2022-08-19T00:34:46;37.15;;;25.83;;
18732;SDS011;9495;51.210;2.934;2022-08-19T00:37:14;42.08;;;26.48;;
18732;SDS011;9495;51.210;2.934;2022-08-19T00:39:44;45.53;;;27.45;;
18732;SDS011;9495;51.210;2.934;2022-08-19T00:42:15;38.28;;;25.58;;
18732;SDS011;9495;51.210;2.934;2022-08-19T00:44:43;38.90;;;25.35;;
18732;SDS011;9495;51.210;2.934;2022-08-19T00:47:12;46.00;;;27.27;;
18732;SDS011;9495;51.210;2.934;2022-08-19T00:49:45;45.65;;;27.80;;
18732;SDS011;9495;51.210;2.934;2022-08-19T00:52:19;44.53;;;26.92;;
18732;SDS011;9495;51.210;2.934;2022-08-19T00:54:51;47.38;;;28.40;;
18732;SDS011;9495;51.210;2.934;2022-08-19T00:57:22;43.50;;;27.92;;
18732;SDS011;9495;51.210;2.934;2022-08-19T00:59:55;39.83;;;28.05;;
18732;SDS011;9495;51.210;2.934;2022-08-19T01:02:29;45.05;;;26.92;;
18732;SDS011;9495;51.210;2.934;2022-08-19T01:04:58;45.03;;;28.60;;
18732;SDS011;9495;51.210;2.934;2022-08-19T01:07:28;42.15;;;26.95;;
18732;SDS011;9495;51.210;2.934;2022-08-19T01:10:05;47.60;;;27.40;;
18732;SDS011;9495;51.210;2.934;2022-08-19T01:12:36;48.63;;;28.05;;
18732;SDS011;9495;51.210;2.934;2022-08-19T01:15:05;46.58;;;27.60;;
18732;SDS011;9495;51.210;2.934;2022-08-19T01:17:35;47.72;;;28.30;;
18732;SDS011;9495;51.210;2.934;2022-08-19T01:20:05;49.20;;;27.42;;
18732;SDS011;9495;51.210;2.934;2022-08-19T01:22:39;43.55;;;26.70;;
18732;SDS011;9495;51.210;2.934;2022-08-19T01:25:12;49.03;;;28.25;;
18732;SDS011;9495;51.210;2.934;2022-08-19T01:27:41;48.78;;;28.95;;
18732;SDS011;9495;51.210;2.934;2022-08-19T01:30:13;48.92;;;28.30;;
18732;SDS011;9495;51.210;2.934;2022-08-19T01:32:42;46.13;;;28.50;;
18732;SDS011;9495;51.210;2.934;2022-08-19T01:35:12;47.35;;;27.60;;
18732;SDS011;9495;51.210;2.934;2022-08-19T01:37:44;48.78;;;27.08;;
18732;SDS011;9495;51.210;2.934;2022-08-19T01:40:13;44.15;;;25.27;;
18732;SDS011;9495;51.210;2.934;2022-08-19T01:42:43;45.05;;;25.83;;
18732;SDS011;9495;51.210;2.934;2022-08-19T01:45:13;42.10;;;24.95;;
18732;SDS011;9495;51.210;2.934;2022-08-19T01:47:41;48.78;;;24.85;;
18732;SDS011;9495;51.210;2.934;2022-08-19T01:50:23;46.25;;;24.27;;
18732;SDS011;9495;51.210;2.934;2022-08-19T01:52:53;45.90;;;24.35;;
18732;SDS011;9495;51.210;2.934;2022-08-19T01:55:31;44.45;;;23.23;;
18732;SDS011;9495;51.210;2.934;2022-08-19T01:58:06;38.08;;;22.42;;
18732;SDS011;9495;51.210;2.934;2022-08-19T02:00:38;38.17;;;22.60;;
18732;SDS011;9495;51.210;2.934;2022-08-19T02:03:06;45.00;;;23.63;;
18732;SDS011;9495;51.210;2.934;2022-08-19T02:05:35;44.45;;;23.17;;
18732;SDS011;9495;51.210;2.934;2022-08-19T02:08:05;41.25;;;23.10;;
18732;SDS011;9495;51.210;2.934;2022-08-19T02:10:37;44.40;;;23.15;;
18732;SDS011;9495;51.210;2.934;2022-08-19T02:13:07;37.22;;;22.92;;
18732;SDS011;9495;51.210;2.934;2022-08-19T02:15:36;42.97;;;22.08;;
18732;SDS011;9495;51.210;2.934;2022-08-19T02:18:05;38.60;;;22.58;;
18732;SDS011;9495;51.210;2.934;2022-08-19T02:20:34;47.58;;;23.08;;
18732;SDS011;9495;51.210;2.934;2022-08-19T02:23:05;46.28;;;22.67;;
18732;SDS011;9495;51.210;2.934;2022-08-19T02:25:41;42.00;;;21.85;;
18732;SDS011;9495;51.210;2.934;2022-08-19T02:28:10;39.35;;;22.52;;
18732;SDS011;9495;51.210;2.934;2022-08-19T02:30:44;36.58;;;20.67;;
18732;SDS011;9495;51.210;2.934;2022-08-19T02:33:12;44.83;;;20.98;;
18732;SDS011;9495;51.210;2.934;2022-08-19T02:35:41;39.55;;;21.13;;
18732;SDS011;9495;51.210;2.934;2022-08-19T02:38:11;37.72;;;20.77;;
18732;SDS011;9495;51.210;2.934;2022-08-19T02:40:56;32.08;;;17.85;;
18732;SDS011;9495;51.210;2.934;2022-08-19T02:43:25;34.45;;;19.42;;
18732;SDS011;9495;51.210;2.934;2022-08-19T02:45:59;33.03;;;20.52;;
18732;SDS011;9495;51.210;2.934;2022-08-19T02:48:28;36.78;;;20.13;;
18732;SDS011;9495;51.210;2.934;2022-08-19T02:50:56;37.00;;;19.08;;
18732;SDS011;9495;51.210;2.934;2022-08-19T02:53:27;44.85;;;20.98;;
18732;SDS011;9495;51.210;2.934;2022-08-19T02:55:56;35.38;;;20.48;;
18732;SDS011;9495;51.210;2.934;2022-08-19T02:58:24;41.17;;;19.52;;
18732;SDS011;9495;51.210;2.934;2022-08-19T03:00:54;38.38;;;19.77;;
18732;SDS011;9495;51.210;2.934;2022-08-19T03:03:24;39.78;;;21.20;;
18732;SDS011;9495;51.210;2.934;2022-08-19T03:06:02;37.95;;;19.73;;
18732;SDS011;9495;51.210;2.934;2022-08-19T03:08:33;40.20;;;21.15;;
18732;SDS011;9495;51.210;2.934;2022-08-19T03:11:01;43.58;;;20.25;;
18732;SDS011;9495;51.210;2.934;2022-08-19T03:13:30;38.63;;;20.23;;
18732;SDS011;9495;51.210;2.934;2022-08-19T03:15:59;41.13;;;21.30;;
18732;SDS011;9495;51.210;2.934;2022-08-19T03:18:31;38.40;;;19.80;;
18732;SDS011;9495;51.210;2.934;2022-08-19T03:21:00;37.83;;;21.10;;
18732;SDS011;9495;51.210;2.934;2022-08-19T03:23:29;41.40;;;20.88;;
18732;SDS011;9495;51.210;2.934;2022-08-19T03:25:58;35.60;;;19.90;;
18732;SDS011;9495;51.210;2.934;2022-08-19T03:28:42;44.50;;;20.95;;
18732;SDS011;9495;51.210;2.934;2022-08-19T03:31:17;33.80;;;20.40;;
18732;SDS011;9495;51.210;2.934;2022-08-19T03:34:09;39.97;;;20.00;;
18732;SDS011;9495;51.210;2.934;2022-08-19T03:36:39;34.55;;;18.90;;
18732;SDS011;9495;51.210;2.934;2022-08-19T03:39:07;37.58;;;20.13;;
18732;SDS011;9495;51.210;2.934;2022-08-19T03:41:39;35.53;;;18.65;;
18732;SDS011;9495;51.210;2.934;2022-08-19T03:44:12;36.35;;;18.40;;
18732;SDS011;9495;51.210;2.934;2022-08-19T03:46:43;34.90;;;18.67;;
18732;SDS011;9495;51.210;2.934;2022-08-19T03:49:13;39.17;;;19.33;;
18732;SDS011;9495;51.210;2.934;2022-08-19T03:51:44;36.45;;;19.30;;
18732;SDS011;9495;51.210;2.934;2022-08-19T03:54:14;37.60;;;18.88;;
18732;SDS011;9495;51.210;2.934;2022-08-19T03:56:45;35.05;;;18.75;;
18732;SDS011;9495;51.210;2.934;2022-08-19T03:59:16;42.85;;;20.85;;
18732;SDS011;9495;51.210;2.934;2022-08-19T04:01:46;41.83;;;20.48;;
18732;SDS011;9495;51.210;2.934;2022-08-19T04:04:14;41.78;;;20.55;;
18732;SDS011;9495;51.210;2.934;2022-08-19T04:06:45;38.40;;;20.45;;
18732;SDS011;9495;51.210;2.934;2022-08-19T04:09:14;39.42;;;20.33;;
18732;SDS011;9495;51.210;2.934;2022-08-19T04:11:43;41.63;;;20.67;;
18732;SDS011;9495;51.210;2.934;2022-08-19T04:14:16;52.20;;;22.23;;
18732;SDS011;9495;51.210;2.934;2022-08-19T04:16:47;42.97;;;21.10;;
18732;SDS011;9495;51.210;2.934;2022-08-19T04:19:16;56.42;;;23.10;;
18732;SDS011;9495;51.210;2.934;2022-08-19T04:21:46;41.00;;;21.25;;
18732;SDS011;9495;51.210;2.934;2022-08-19T04:24:16;46.90;;;20.85;;
18732;SDS011;9495;51.210;2.934;2022-08-19T04:26:46;50.05;;;22.23;;
18732;SDS011;9495;51.210;2.934;2022-08-19T04:29:16;43.78;;;20.20;;
18732;SDS011;9495;51.210;2.934;2022-08-19T04:31:47;38.88;;;21.15;;
18732;SDS011;9495;51.210;2.934;2022-08-19T04:34:17;42.35;;;20.77;;
18732;SDS011;9495;51.210;2.934;2022-08-19T04:36:48;45.13;;;20.80;;
18732;SDS011;9495;51.210;2.934;2022-08-19T04:39:19;51.17;;;21.23;;
18732;SDS011;9495;51.210;2.934;2022-08-19T04:41:49;40.15;;;19.10;;
18732;SDS011;9495;51.210;2.934;2022-08-19T04:44:35;43.83;;;20.10;;
18732;SDS011;9495;51.210;2.934;2022-08-19T04:47:11;48.35;;;19.67;;
18732;SDS011;9495;51.210;2.934;2022-08-19T04:49:39;49.80;;;20.13;;
18732;SDS011;9495;51.210;2.934;2022-08-19T04:52:08;40.88;;;19.20;;
18732;SDS011;9495;51.210;2.934;2022-08-19T04:54:36;46.83;;;19.08;;
18732;SDS011;9495;51.210;2.934;2022-08-19T04:57:07;42.50;;;19.23;;
18732;SDS011;9495;51.210;2.934;2022-08-19T04:59:37;40.03;;;18.38;;
18732;SDS011;9495;51.210;2.934;2022-08-19T05:02:06;43.72;;;17.83;;
18732;SDS011;9495;51.210;2.934;2022-08-19T05:04:36;44.30;;;17.67;;
18732;SDS011;9495;51.210;2.934;2022-08-19T05:07:06;42.95;;;17.13;;
18732;SDS011;9495;51.210;2.934;2022-08-19T05:09:35;45.30;;;18.00;;
18732;SDS011;9495;51.210;2.934;2022-08-19T05:12:25;38.88;;;14.98;;
18732;SDS011;9495;51.210;2.934;2022-08-19T05:14:55;43.92;;;15.63;;
18732;SDS011;9495;51.210;2.934;2022-08-19T05:17:24;40.38;;;16.05;;
18732;SDS011;9495;51.210;2.934;2022-08-19T05:19:58;39.08;;;14.75;;
18732;SDS011;9495;51.210;2.934;2022-08-19T05:22:45;38.13;;;14.80;;
18732;SDS011;9495;51.210;2.934;2022-08-19T05:25:16;39.00;;;15.77;;
18732;SDS011;9495;51.210;2.934;2022-08-19T05:27:47;44.20;;;14.52;;
18732;SDS011;9495;51.210;2.934;2022-08-19T05:30:16;35.00;;;12.60;;
18732;SDS011;9495;51.210;2.934;2022-08-19T05:33:04;32.88;;;13.00;;
18732;SDS011;9495;51.210;2.934;2022-08-19T05:35:35;35.25;;;13.65;;
18732;SDS011;9495;51.210;2.934;2022-08-19T05:38:03;36.00;;;13.73;;
18732;SDS011;9495;51.210;2.934;2022-08-19T05:40:33;31.23;;;12.23;;
18732;SDS011;9495;51.210;2.934;2022-08-19T05:43:05;30.98;;;12.65;;
18732;SDS011;9495;51.210;2.934;2022-08-19T05:45:37;35.17;;;13.57;;
18732;SDS011;9495;51.210;2.934;2022-08-19T05:48:08;40.25;;;13.05;;
18732;SDS011;9495;51.210;2.934;2022-08-19T05:50:37;32.60;;;14.38;;
18732;SDS011;9495;51.210;2.934;2022-08-19T05:53:06;32.60;;;13.75;;
18732;SDS011;9495;51.210;2.934;2022-08-19T05:55:35;31.95;;;14.20;;
18732;SDS011;9495;51.210;2.934;2022-08-19T05:58:06;34.00;;;13.57;;
18732;SDS011;9495;51.210;2.934;2022-08-19T06:00:35;40.17;;;14.05;;
18732;SDS011;9495;51.210;2.934;2022-08-19T06:03:03;37.75;;;13.13;;
18732;SDS011;9495;51.210;2.934;2022-08-19T06:05:38;33.08;;;13.07;;
18732;SDS011;9495;51.210;2.934;2022-08-19T06:08:17;43.67;;;13.90;;
18732;SDS011;9495;51.210;2.934;2022-08-19T06:11:11;31.63;;;12.50;;
18732;SDS011;9495;51.210;2.934;2022-08-19T06:13:43;34.53;;;12.05;;
18732;SDS011;9495;51.210;2.934;2022-08-19T06:16:13;32.83;;;11.27;;
18732;SDS011;9495;51.210;2.934;2022-08-19T06:18:49;32.80;;;11.75;;
18732;SDS011;9495;51.210;2.934;2022-08-19T06:21:19;30.88;;;10.88;;
18732;SDS011;9495;51.210;2.934;2022-08-19T06:23:48;26.27;;;11.90;;
18732;SDS011;9495;51.210;2.934;2022-08-19T06:26:17;27.98;;;10.52;;
18732;SDS011;9495;51.210;2.934;2022-08-19T06:28:48;30.00;;;10.52;;
18732;SDS011;9495;51.210;2.934;2022-08-19T06:31:17;28.55;;;10.93;;
18732;SDS011;9495;51.210;2.934;2022-08-19T06:33:47;27.67;;;11.48;;
18732;SDS011;9495;51.210;2.934;2022-08-19T06:36:17;27.60;;;11.68;;
18732;SDS011;9495;51.210;2.934;2022-08-19T06:38:50;26.25;;;11.70;;
18732;SDS011;9495;51.210;2.934;2022-08-19T06:41:18;27.35;;;11.38;;
18732;SDS011;9495;51.210;2.934;2022-08-19T06:43:48;23.38;;;10.60;;
18732;SDS011;9495;51.210;2.934;2022-08-19T06:46:21;28.08;;;11.23;;
18732;SDS011;9495;51.210;2.934;2022-08-19T06:48:50;23.58;;;10.75;;
18732;SDS011;9495;51.210;2.934;2022-08-19T06:51:19;27.77;;;11.18;;
18732;SDS011;9495;51.210;2.934;2022-08-19T06:53:51;23.73;;;11.30;;
18732;SDS011;9495;51.210;2.934;2022-08-19T06:56:21;24.35;;;11.52;;
18732;SDS011;9495;51.210;2.934;2022-08-19T06:58:58;25.55;;;11.88;;
18732;SDS011;9495;51.210;2.934;2022-08-19T07:01:26;21.90;;;10.70;;
18732;SDS011;9495;51.210;2.934;2022-08-19T07:03:55;18.75;;;9.75;;
18732;SDS011;9495;51.210;2.934;2022-08-19T07:06:23;19.30;;;9.73;;
18732;SDS011;9495;51.210;2.934;2022-08-19T07:09:10;16.90;;;9.38;;
18732;SDS011;9495;51.210;2.934;2022-08-19T07:11:44;20.00;;;9.68;;
18732;SDS011;9495;51.210;2.934;2022-08-19T07:14:15;18.02;;;10.20;;
18732;SDS011;9495;51.210;2.934;2022-08-19T07:16:45;18.10;;;9.48;;
18732;SDS011;9495;51.210;2.934;2022-08-19T07:19:15;18.05;;;9.55;;
18732;SDS011;9495;51.210;2.934;2022-08-19T07:21:46;20.88;;;10.70;;
18732;SDS011;9495;51.210;2.934;2022-08-19T07:24:16;19.08;;;11.63;;
18732;SDS011;9495;51.210;2.934;2022-08-19T07:26:45;20.98;;;11.65;;
18732;SDS011;9495;51.210;2.934;2022-08-19T07:29:19;19.33;;;11.68;;
18732;SDS011;9495;51.210;2.934;2022-08-19T07:31:54;21.52;;;11.55;;
18732;SDS011;9495;51.210;2.934;2022-08-19T07:34:26;23.48;;;13.05;;
18732;SDS011;9495;51.210;2.934;2022-08-19T07:36:55;22.23;;;12.63;;
18732;SDS011;9495;51.210;2.934;2022-08-19T07:39:25;20.65;;;13.75;;
18732;SDS011;9495;51.210;2.934;2022-08-19T07:41:55;24.05;;;13.52;;
18732;SDS011;9495;51.210;2.934;2022-08-19T07:44:26;18.75;;;12.82;;
18732;SDS011;9495;51.210;2.934;2022-08-19T07:46:56;18.63;;;13.15;;
18732;SDS011;9495;51.210;2.934;2022-08-19T07:49:25;18.95;;;12.15;;
18732;SDS011;9495;51.210;2.934;2022-08-19T07:51:54;17.75;;;12.63;;
18732;SDS011;9495;51.210;2.934;2022-08-19T07:54:26;18.42;;;12.80;;
18732;SDS011;9495;51.210;2.934;2022-08-19T07:56:56;20.38;;;12.77;;
18732;SDS011;9495;51.210;2.934;2022-08-19T07:59:24;19.58;;;12.88;;
18732;SDS011;9495;51.210;2.934;2022-08-19T08:01:55;18.52;;;13.02;;
18732;SDS011;9495;51.210;2.934;2022-08-19T08:04:26;16.00;;;11.63;;
18732;SDS011;9495;51.210;2.934;2022-08-19T08:07:12;15.57;;;12.88;;
18732;SDS011;9495;51.210;2.934;2022-08-19T08:09:57;15.95;;;10.82;;
18732;SDS011;9495;51.210;2.934;2022-08-19T08:12:33;17.42;;;11.27;;
18732;SDS011;9495;51.210;2.934;2022-08-19T08:15:10;16.13;;;9.93;;
18732;SDS011;9495;51.210;2.934;2022-08-19T08:17:42;13.02;;;8.82;;
18732;SDS011;9495;51.210;2.934;2022-08-19T08:20:16;15.05;;;9.55;;
18732;SDS011;9495;51.210;2.934;2022-08-19T08:22:46;16.45;;;9.30;;
18732;SDS011;9495;51.210;2.934;2022-08-19T08:25:33;17.05;;;9.35;;
18732;SDS011;9495;51.210;2.934;2022-08-19T08:28:03;13.02;;;8.93;;
18732;SDS011;9495;51.210;2.934;2022-08-19T08:30:33;15.02;;;8.68;;
18732;SDS011;9495;51.210;2.934;2022-08-19T08:33:03;11.60;;;7.70;;
18732;SDS011;9495;51.210;2.934;2022-08-19T08:35:32;12.20;;;6.90;;
18732;SDS011;9495;51.210;2.934;2022-08-19T08:38:00;13.52;;;7.68;;
18732;SDS011;9495;51.210;2.934;2022-08-19T08:40:33;11.07;;;7.22;;
18732;SDS011;9495;51.210;2.934;2022-08-19T08:43:07;16.02;;;8.15;;
18732;SDS011;9495;51.210;2.934;2022-08-19T08:45:43;11.10;;;7.93;;
18732;SDS011;9495;51.210;2.934;2022-08-19T08:48:20;16.33;;;6.63;;
18732;SDS011;9495;51.210;2.934;2022-08-19T08:50:54;12.00;;;6.30;;
18732;SDS011;9495;51.210;2.934;2022-08-19T08:53:24;9.50;;;6.15;;
18732;SDS011;9495;51.210;2.934;2022-08-19T08:56:00;9.27;;;5.72;;
18732;SDS011;9495;51.210;2.934;2022-08-19T08:58:32;10.23;;;4.75;;
18732;SDS011;9495;51.210;2.934;2022-08-19T09:01:11;10.57;;;4.25;;
18732;SDS011;9495;51.210;2.934;2022-08-19T09:03:40;8.55;;;3.90;;
18732;SDS011;9495;51.210;2.934;2022-08-19T09:06:12;9.95;;;3.92;;
18732;SDS011;9495;51.210;2.934;2022-08-19T09:08:48;7.63;;;3.90;;
18732;SDS011;9495;51.210;2.934;2022-08-19T09:11:30;8.13;;;4.55;;
18732;SDS011;9495;51.210;2.934;2022-08-19T09:14:11;7.63;;;5.05;;
18732;SDS011;9495;51.210;2.934;2022-08-19T09:17:09;9.85;;;6.90;;
18732;SDS011;9495;51.210;2.934;2022-08-19T09:19:46;10.40;;;7.20;;
18732;SDS011;9495;51.210;2.934;2022-08-19T09:22:18;12.68;;;7.15;;
18732;SDS011;9495;51.210;2.934;2022-08-19T09:24:51;10.40;;;7.55;;
18732;SDS011;9495;51.210;2.934;2022-08-19T09:27:20;13.02;;;9.70;;
18732;SDS011;9495;51.210;2.934;2022-08-19T09:30:09;16.30;;;9.98;;
18732;SDS011;9495;51.210;2.934;2022-08-19T09:32:42;12.93;;;9.38;;
18732;SDS011;9495;51.210;2.934;2022-08-19T09:35:12;13.77;;;8.88;;
18732;SDS011;9495;51.210;2.934;2022-08-19T09:37:41;10.93;;;8.85;;
18732;SDS011;9495;51.210;2.934;2022-08-19T09:40:11;11.82;;;8.05;;
18732;SDS011;9495;51.210;2.934;2022-08-19T09:42:41;12.68;;;9.00;;
18732;SDS011;9495;51.210;2.934;2022-08-19T09:45:19;13.73;;;8.82;;
18732;SDS011;9495;51.210;2.934;2022-08-19T09:47:50;8.48;;;6.28;;
18732;SDS011;9495;51.210;2.934;2022-08-19T09:50:21;9.40;;;6.35;;
18732;SDS011;9495;51.210;2.934;2022-08-19T09:52:51;7.95;;;5.13;;
18732;SDS011;9495;51.210;2.934;2022-08-19T09:55:23;7.68;;;4.10;;
18732;SDS011;9495;51.210;2.934;2022-08-19T09:57:58;5.05;;;3.42;;
18732;SDS011;9495;51.210;2.934;2022-08-19T10:00:28;9.88;;;4.15;;
18732;SDS011;9495;51.210;2.934;2022-08-19T10:02:58;8.48;;;4.40;;
18732;SDS011;9495;51.210;2.934;2022-08-19T10:05:28;12.77;;;7.55;;
18732;SDS011;9495;51.210;2.934;2022-08-19T10:08:14;8.98;;;8.07;;
18732;SDS011;9495;51.210;2.934;2022-08-19T10:10:46;12.38;;;9.30;;
18732;SDS011;9495;51.210;2.934;2022-08-19T10:13:15;13.02;;;10.43;;
18732;SDS011;9495;51.210;2.934;2022-08-19T10:15:48;13.30;;;10.23;;
18732;SDS011;9495;51.210;2.934;2022-08-19T10:18:19;16.27;;;11.18;;
18732;SDS011;9495;51.210;2.934;2022-08-19T10:20:49;13.60;;;10.50;;
18732;SDS011;9495;51.210;2.934;2022-08-19T10:23:19;16.67;;;10.75;;
18732;SDS011;9495;51.210;2.934;2022-08-19T10:25:48;16.48;;;11.20;;
18732;SDS011;9495;51.210;2.934;2022-08-19T10:28:17;17.75;;;11.00;;
18732;SDS011;9495;51.210;2.934;2022-08-19T10:30:46;15.80;;;12.00;;
18732;SDS011;9495;51.210;2.934;2022-08-19T10:33:14;14.23;;;11.75;;
18732;SDS011;9495;51.210;2.934;2022-08-19T10:36:05;16.05;;;11.43;;
18732;SDS011;9495;51.210;2.934;2022-08-19T10:38:35;20.02;;;13.65;;
18732;SDS011;9495;51.210;2.934;2022-08-19T10:41:15;15.90;;;12.60;;
18732;SDS011;9495;51.210;2.934;2022-08-19T10:43:44;14.48;;;12.05;;
18732;SDS011;9495;51.210;2.934;2022-08-19T10:46:14;14.90;;;12.90;;
18732;SDS011;9495;51.210;2.934;2022-08-19T10:48:44;15.43;;;12.07;;
18732;SDS011;9495;51.210;2.934;2022-08-19T10:51:14;13.77;;;10.82;;
18732;SDS011;9495;51.210;2.934;2022-08-19T10:54:00;12.52;;;9.98;;
18732;SDS011;9495;51.210;2.934;2022-08-19T10:56:32;11.82;;;8.02;;
18732;SDS011;9495;51.210;2.934;2022-08-19T10:59:19;11.73;;;5.43;;
18732;SDS011;9495;51.210;2.934;2022-08-19T11:01:52;9.90;;;4.88;;
18732;SDS011;9495;51.210;2.934;2022-08-19T11:04:23;9.20;;;4.47;;
18732;SDS011;9495;51.210;2.934;2022-08-19T11:06:56;9.35;;;4.40;;
18732;SDS011;9495;51.210;2.934;2022-08-19T11:09:25;7.45;;;3.58;;
18732;SDS011;9495;51.210;2.934;2022-08-19T11:11:59;7.47;;;4.63;;
18732;SDS011;9495;51.210;2.934;2022-08-19T11:14:30;7.95;;;4.50;;
18732;SDS011;9495;51.210;2.934;2022-08-19T11:17:00;5.82;;;3.85;;
18732;SDS011;9495;51.210;2.934;2022-08-19T11:19:28;5.82;;;3.58;;
18732;SDS011;9495;51.210;2.934;2022-08-19T11:21:58;7.70;;;3.47;;
18732;SDS011;9495;51.210;2.934;2022-08-19T11:24:29;6.43;;;2.20;;
18732;SDS011;9495;51.210;2.934;2022-08-19T11:27:03;5.00;;;3.05;;
18732;SDS011;9495;51.210;2.934;2022-08-19T11:29:33;7.70;;;2.90;;
18732;SDS011;9495;51.210;2.934;2022-08-19T11:32:03;8.23;;;2.88;;
18732;SDS011;9495;51.210;2.934;2022-08-19T11:34:33;7.38;;;4.18;;
18732;SDS011;9495;51.210;2.934;2022-08-19T11:37:03;5.97;;;3.50;;
18732;SDS011;9495;51.210;2.934;2022-08-19T11:39:32;4.97;;;3.65;;
18732;SDS011;9495;51.210;2.934;2022-08-19T11:42:03;7.65;;;4.15;;
18732;SDS011;9495;51.210;2.934;2022-08-19T11:44:53;8.57;;;4.55;;
18732;SDS011;9495;51.210;2.934;2022-08-19T11:47:21;9.68;;;4.65;;
18732;SDS011;9495;51.210;2.934;2022-08-19T11:49:50;7.30;;;3.78;;
18732;SDS011;9495;51.210;2.934;2022-08-19T11:52:21;9.23;;;4.30;;
18732;SDS011;9495;51.210;2.934;2022-08-19T11:54:49;11.90;;;4.80;;
18732;SDS011;9495;51.210;2.934;2022-08-19T11:57:17;10.98;;;4.45;;
18732;SDS011;9495;51.210;2.934;2022-08-19T11:59:49;8.43;;;3.72;;
18732;SDS011;9495;51.210;2.934;2022-08-19T12:02:18;10.15;;;3.97;;
18732;SDS011;9495;51.210;2.934;2022-08-19T12:04:47;12.07;;;4.38;;
18732;SDS011;9495;51.210;2.934;2022-08-19T12:07:16;16.05;;;4.30;;
18732;SDS011;9495;51.210;2.934;2022-08-19T12:09:46;11.57;;;4.43;;
18732;SDS011;9495;51.210;2.934;2022-08-19T12:12:14;13.38;;;4.10;;
18732;SDS011;9495;51.210;2.934;2022-08-19T12:14:43;17.30;;;4.07;;
18732;SDS011;9495;51.210;2.934;2022-08-19T12:17:12;11.82;;;3.72;;
18732;SDS011;9495;51.210;2.934;2022-08-19T12:19:41;11.88;;;3.50;;
18732;SDS011;9495;51.210;2.934;2022-08-19T12:22:09;12.63;;;3.78;;
18732;SDS011;9495;51.210;2.934;2022-08-19T12:24:38;7.72;;;3.50;;
18732;SDS011;9495;51.210;2.934;2022-08-19T12:27:08;9.40;;;3.95;;
18732;SDS011;9495;51.210;2.934;2022-08-19T12:29:38;8.02;;;2.97;;
18732;SDS011;9495;51.210;2.934;2022-08-19T12:32:08;13.30;;;3.40;;
18732;SDS011;9495;51.210;2.934;2022-08-19T12:34:38;9.52;;;3.13;;
18732;SDS011;9495;51.210;2.934;2022-08-19T12:37:06;14.02;;;3.58;;
18732;SDS011;9495;51.210;2.934;2022-08-19T12:39:36;12.30;;;3.60;;
18732;SDS011;9495;51.210;2.934;2022-08-19T12:42:05;12.15;;;4.00;;
18732;SDS011;9495;51.210;2.934;2022-08-19T12:44:36;11.35;;;3.88;;
18732;SDS011;9495;51.210;2.934;2022-08-19T12:47:08;13.18;;;4.35;;
18732;SDS011;9495;51.210;2.934;2022-08-19T12:49:38;13.40;;;4.00;;
18732;SDS011;9495;51.210;2.934;2022-08-19T12:52:21;9.60;;;4.13;;
18732;SDS011;9495;51.210;2.934;2022-08-19T12:54:50;15.82;;;4.65;;
18732;SDS011;9495;51.210;2.934;2022-08-19T12:57:20;10.68;;;3.83;;
18732;SDS011;9495;51.210;2.934;2022-08-19T12:59:59;7.93;;;3.50;;
18732;SDS011;9495;51.210;2.934;2022-08-19T13:02:31;8.82;;;3.42;;
18732;SDS011;9495;51.210;2.934;2022-08-19T13:05:05;10.43;;;3.67;;
18732;SDS011;9495;51.210;2.934;2022-08-19T13:07:35;10.48;;;3.63;;
18732;SDS011;9495;51.210;2.934;2022-08-19T13:10:05;13.25;;;3.58;;
18732;SDS011;9495;51.210;2.934;2022-08-19T13:12:34;10.70;;;4.25;;
18732;SDS011;9495;51.210;2.934;2022-08-19T13:15:04;9.80;;;3.40;;
18732;SDS011;9495;51.210;2.934;2022-08-19T13:17:36;10.13;;;3.88;;
18732;SDS011;9495;51.210;2.934;2022-08-19T13:20:06;6.65;;;3.00;;
18732;SDS011;9495;51.210;2.934;2022-08-19T13:22:35;5.90;;;2.92;;
18732;SDS011;9495;51.210;2.934;2022-08-19T13:25:04;11.15;;;2.85;;
18732;SDS011;9495;51.210;2.934;2022-08-19T13:27:34;6.93;;;2.65;;
18732;SDS011;9495;51.210;2.934;2022-08-19T13:30:05;7.57;;;3.00;;
18732;SDS011;9495;51.210;2.934;2022-08-19T13:32:53;10.25;;;3.15;;
18732;SDS011;9495;51.210;2.934;2022-08-19T13:35:42;6.50;;;3.00;;
18732;SDS011;9495;51.210;2.934;2022-08-19T13:38:13;3.10;;;1.80;;
18732;SDS011;9495;51.210;2.934;2022-08-19T13:40:42;6.57;;;2.70;;
18732;SDS011;9495;51.210;2.934;2022-08-19T13:43:11;4.18;;;1.90;;
18732;SDS011;9495;51.210;2.934;2022-08-19T13:45:50;6.53;;;2.20;;
18732;SDS011;9495;51.210;2.934;2022-08-19T13:48:20;6.38;;;2.70;;
18732;SDS011;9495;51.210;2.934;2022-08-19T13:50:49;8.52;;;2.25;;
18732;SDS011;9495;51.210;2.934;2022-08-19T13:53:17;7.07;;;2.90;;
18732;SDS011;9495;51.210;2.934;2022-08-19T13:55:46;5.45;;;1.98;;
18732;SDS011;9495;51.210;2.934;2022-08-19T13:58:16;7.13;;;2.70;;
18732;SDS011;9495;51.210;2.934;2022-08-19T14:00:45;7.80;;;2.60;;
18732;SDS011;9495;51.210;2.934;2022-08-19T14:03:15;5.53;;;2.42;;
18732;SDS011;9495;51.210;2.934;2022-08-19T14:05:43;8.65;;;2.40;;
18732;SDS011;9495;51.210;2.934;2022-08-19T14:08:12;7.97;;;2.40;;
18732;SDS011;9495;51.210;2.934;2022-08-19T14:10:40;7.57;;;2.60;;
18732;SDS011;9495;51.210;2.934;2022-08-19T14:13:12;7.93;;;2.58;;
18732;SDS011;9495;51.210;2.934;2022-08-19T14:15:42;11.32;;;3.22;;
18732;SDS011;9495;51.210;2.934;2022-08-19T14:18:10;8.25;;;2.42;;
18732;SDS011;9495;51.210;2.934;2022-08-19T14:20:40;17.38;;;3.67;;
18732;SDS011;9495;51.210;2.934;2022-08-19T14:23:09;8.88;;;2.72;;
18732;SDS011;9495;51.210;2.934;2022-08-19T14:25:38;13.50;;;3.10;;
18732;SDS011;9495;51.210;2.934;2022-08-19T14:28:07;13.43;;;3.50;;
18732;SDS011;9495;51.210;2.934;2022-08-19T14:30:35;6.97;;;2.65;;
18732;SDS011;9495;51.210;2.934;2022-08-19T14:33:05;5.82;;;2.22;;
18732;SDS011;9495;51.210;2.934;2022-08-19T14:35:34;9.93;;;3.08;;
18732;SDS011;9495;51.210;2.934;2022-08-19T14:38:05;10.10;;;3.03;;
18732;SDS011;9495;51.210;2.934;2022-08-19T14:40:40;6.35;;;2.70;;
18732;SDS011;9495;51.210;2.934;2022-08-19T14:43:08;6.22;;;2.45;;
18732;SDS011;9495;51.210;2.934;2022-08-19T14:45:38;7.55;;;2.65;;
18732;SDS011;9495;51.210;2.934;2022-08-19T14:48:09;8.32;;;2.90;;
18732;SDS011;9495;51.210;2.934;2022-08-19T14:50:44;8.77;;;3.10;;
18732;SDS011;9495;51.210;2.934;2022-08-19T14:53:15;6.10;;;2.75;;
18732;SDS011;9495;51.210;2.934;2022-08-19T14:55:44;11.77;;;3.17;;
18732;SDS011;9495;51.210;2.934;2022-08-19T14:58:13;12.45;;;3.50;;
18732;SDS011;9495;51.210;2.934;2022-08-19T15:00:56;10.55;;;3.22;;
18732;SDS011;9495;51.210;2.934;2022-08-19T15:03:25;12.52;;;3.72;;
18732;SDS011;9495;51.210;2.934;2022-08-19T15:05:54;14.88;;;3.03;;
18732;SDS011;9495;51.210;2.934;2022-08-19T15:08:25;9.90;;;3.00;;
18732;SDS011;9495;51.210;2.934;2022-08-19T15:10:54;9.88;;;3.17;;